Date,TemperatureHighF,TemperatureAvgF,TemperatureLowF,DewpointHighF,DewpointAvgF,DewpointLowF,HumidityHigh,HumidityAvg,HumidityLow,PressureMaxIn,PressureMinIn,WindSpeedMaxMPH,WindSpeedAvgMPH,GustSpeedMaxMPH,PrecipitationSumIn
2013-4-1,62.6,48.7,36.5,39.6,23.3,1.0,77,42,20,29.32,29.06,20,5,22,0.04
2013-4-2,51.4,37.7,30.9,10.6,2.1,-1.4,25,22,19,29.47,29.29,21,7,26,0.00
2013-4-3,53.6,38.5,29.7,11.1,2.3,-3.0,25,21,18,29.68,29.41,29,7,29,0.00
2013-4-4,56.5,40.9,27.1,17.6,6.5,-3.0,40,24,17,29.77,29.53,13,4,15,0.00
2013-4-5,68.7,48.0,38.7,19.2,12.2,4.1,40,25,15,29.56,29.18,13,4,20,0.00
2013-4-6,68.9,41.7,32.9,19.4,4.9,-1.0,30,21,15,29.77,29.41,23,5,25,0.00
2013-4-7,58.3,45.2,32.9,32.8,18.7,5.7,58,36,20,29.74,29.41,19,5,23,0.00
2013-4-8,77.4,55.1,38.8,34.3,25.8,18.5,74,38,15,29.53,29.35,12,3,13,0.00
2013-4-9,90.3,64.1,48.6,44.9,29.8,18.5,84,34,12,29.50,29.35,16,4,22,0.00
2013-4-10,74.3,59.6,51.4,47.5,33.3,21.9,75,40,21,29.44,29.32,11,3,27,0.31
2013-4-11,59.9,53.5,46.6,51.4,33.9,17.0,84,50,27,29.53,29.29,10,4,12,0.00
2013-4-12,46.8,41.9,39.0,35.0,24.2,8.1,80,54,22,29.53,29.15,23,6,25,0.47
2013-4-13,59.4,47.0,37.6,32.4,22.1,14.4,78,42,19,29.35,29.15,11,3,15,0.08
2013-4-14,64.0,49.7,41.7,26.1,15.8,6.7,49,28,16,29.59,29.32,20,4,20,0.00
2013-4-15,63.7,47.3,36.1,19.6,15.0,7.7,47,28,18,29.83,29.59,10,3,13,0.00
2013-4-16,63.3,52.4,39.4,44.8,30.9,18.5,67,45,27,29.80,29.56,17,5,22,0.00
2013-4-17,81.5,58.7,48.7,49.2,24.4,14.1,77,30,14,29.77,29.53,15,4,19,0.00
2013-4-18,60.4,52.0,41.7,36.4,23.5,15.3,54,35,19,29.80,29.56,16,4,19,0.00
2013-4-19,71.2,60.9,52.2,59.2,51.8,36.4,96,75,34,29.56,29.15,19,6,28,0.00
2013-4-20,70.9,54.5,43.0,57.3,23.8,6.5,85,36,14,29.68,29.12,17,6,22,0.24
2013-4-21,72.9,45.0,34.7,20.9,7.8,1.6,29,22,14,29.97,29.68,13,4,18,0.00
2013-4-22,55.0,44.7,33.6,21.0,15.2,8.2,52,32,18,30.06,29.91,16,4,17,0.00
2013-4-23,48.6,42.7,37.9,26.1,20.3,12.3,54,41,32,29.91,29.47,13,5,15,0.00
2013-4-24,74.1,55.3,43.5,43.0,28.4,22.7,70,39,16,29.50,29.32,13,5,15,0.00
2013-4-25,84.9,56.8,44.8,46.7,21.2,9.7,78,29,13,29.71,29.29,15,4,19,0.00
2013-4-26,81.0,53.9,36.0,27.3,17.0,10.0,50,25,14,29.85,29.68,12,3,13,0.00
2013-4-27,74.1,55.6,39.0,25.1,15.8,9.5,37,21,14,29.85,29.71,12,3,15,0.00
2013-4-28,69.8,55.8,42.3,38.2,21.7,10.9,77,30,16,29.74,29.62,14,3,15,0.00
2013-4-29,59.4,54.5,50.4,34.2,25.8,15.5,49,34,20,29.68,29.59,11,3,13,0.00
2013-4-30,73.2,57.2,47.1,31.0,20.7,10.7,50,26,14,29.80,29.62,12,2,12,0.00